Time;durP1;ratioP1;P1;durP2;ratioP2;P2;SDS_P1;SDS_P2;PMS_P1;PMS_P2;Temp;Humidity;BMP_temperature;BMP_pressure;BME280_temperature;BME280_humidity;BME280_pressure;Samples;Min_cycle;Max_cycle;Signal;HPM_P1;HPM_P2
2021/04/12 00:01:11;;;;;;;;;;;;;;;;;;5072765;28;19999;-81
2021/04/12 00:03:45;;;;;;;;;;;;;;;;;;5055525;28;20130;-81
2021/04/12 00:06:12;;;;;;;;;;;;;;;;;;5072875;28;19912;-81
2021/04/12 00:08:40;;;;;;;;;;;;;;;;;;5039468;28;19920;-81
2021/04/12 00:11:14;;;;;;;;;;;;;;;;;;5072481;28;19962;-81
2021/04/12 00:13:41;;;;;;;;;;;;;;;;;;5072415;28;19916;-81
2021/04/12 00:16:13;;;;;;;;;;;;;;;;;;5052473;28;19920;-81
2021/04/12 00:18:50;;;;;;;;;;;;;;;;;;5053028;28;19975;-82
2021/04/12 00:21:27;;;;;;;;;;;;;;;;;;5035731;28;20341;-81
2021/04/12 00:23:58;;;;;;;;;;;;;;;;;;5035942;28;19916;-81
2021/04/12 00:26:26;;;;;;;;;;;;;;;;;;5062627;28;19917;-81
2021/04/12 00:28:52;;;;;;;;;;;;;;;;;;5052558;28;19991;-81
2021/04/12 00:31:19;;;;;;;;;;;;;;;;;;5068564;28;19913;-81
2021/04/12 00:33:52;;;;;;;;;;;;;;;;;;5052165;28;19912;-81
2021/04/12 00:36:27;;;;;;;;;;;;;;;;;;5052139;28;19958;-81
2021/04/12 00:38:55;;;;;;;;;;;;;;;;;;5068958;28;20359;-81
2021/04/12 00:41:35;;;;;;;;;;;;;;;;;;5051710;28;20405;-81
2021/04/12 00:44:13;;;;;;;;;;;;;;;;;;5051913;28;19924;-81
2021/04/12 00:46:46;;;;;;;;;;;;;;;;;;5053105;28;19917;-81
2021/04/12 00:49:27;;;;;;;;;;;;;;;;;;5051862;28;19916;-81
2021/04/12 00:51:59;;;;;;;;;;;;;;;;;;5051934;28;19951;-81
2021/04/12 00:54:52;;;;;;;;;;;;;;;;;;5051650;28;19913;-81
2021/04/12 00:57:30;;;;;;;;;;;;;;;;;;5044762;28;19912;-81
2021/04/12 01:00:01;;;;;;;;;;;;;;;;;;5083109;28;19912;-81
2021/04/12 01:02:32;;;;;;;;;;;;;;;;;;5106051;28;20382;-81
2021/04/12 01:05:26;;;;;;;;;;;;;;;;;;5071033;28;19966;-81
2021/04/12 01:08:04;;;;;;;;;;;;;;;;;;5053646;28;20453;-81
2021/04/12 01:10:47;;;;;;;;;;;;;;;;;;5072023;28;19919;-81
2021/04/12 01:13:39;;;;;;;;;;;;;;;;;;5054033;28;20406;-81
2021/04/12 01:16:33;;;;;;;;;;;;;;;;;;5063742;28;19916;-81
2021/04/12 01:19:01;;;;;;;;;;;;;;;;;;5033105;28;19913;-81
2021/04/12 01:21:42;;;;;;;;;;;;;;;;;;5068127;28;19916;-81
2021/04/12 01:24:07;;;;;;;;;;;;;;;;;;5050878;28;19916;-81
2021/04/12 01:26:51;;;;;;;;;;;;;;;;;;5061086;28;20007;-81
2021/04/12 01:29:16;;;;;;;;;;;;;;;;;;5104872;28;19923;-81
2021/04/12 01:32:00;;;;;;;;;;;;;;;;;;5104781;28;19912;-81
2021/04/12 01:34:44;;;;;;;;;;;;;;;;;;5071099;28;19916;-81
2021/04/12 01:37:09;;;;;;;;;;;;;;;;;;5054545;28;19929;-81
2021/04/12 01:39:43;;;;;;;;;;;;;;;;;;5071760;28;20075;-81
2021/04/12 01:42:17;;;;;;;;;;;;;;;;;;5070911;28;20379;-81
2021/04/12 01:44:46;;;;;;;;;;;;;;;;;;5104532;28;19931;-81
2021/04/12 01:47:27;;;;;;;;;;;;;;;;;;5054267;28;20365;-81
2021/04/12 01:50:14;;;;;;;;;;;;;;;;;;5054356;28;19912;-81
2021/04/12 01:52:45;;;;;;;;;;;;;;;;;;5070809;28;19920;-81
2021/04/12 01:55:25;;;;;;;;;;;;;;;;;;5070897;28;19912;-82
2021/04/12 01:58:09;;;;;;;;;;;;;;;;;;5071151;28;19962;-81
2021/04/12 02:00:35;;;;;;;;;;;;;;;;;;5104820;28;19947;-81
2021/04/12 02:03:00;;;;;;;;;;;;;;;;;;5070484;28;19959;-81
2021/04/12 02:05:28;;;;;;;;;;;;;;;;;;5071786;28;19919;-81
2021/04/12 02:08:08;;;;;;;;;;;;;;;;;;5070868;28;20459;-82
2021/04/12 02:10:36;;;;;;;;;;;;;;;;;;5071628;28;19913;-81
2021/04/12 02:13:08;;;;;;;;;;;;;;;;;;5071960;28;19916;-81
2021/04/12 02:15:50;;;;;;;;;;;;;;;;;;5054005;28;19999;-81
2021/04/12 02:18:16;;;;;;;;;;;;;;;;;;5041685;28;19993;-81
2021/04/12 02:20:44;;;;;;;;;;;;;;;;;;5074757;28;19916;-81
2021/04/12 02:23:12;;;;;;;;;;;;;;;;;;5057532;28;19912;-81
2021/04/12 02:25:56;;;;;;;;;;;;;;;;;;5074304;28;19916;-81
2021/04/12 02:28:22;;;;;;;;;;;;;;;;;;5070619;28;19921;-81
2021/04/12 02:30:53;;;;;;;;;;;;;;;;;;5055634;28;19920;-81
2021/04/12 02:33:30;;;;;;;;;;;;;;;;;;5104885;28;19920;-81
2021/04/12 02:36:05;;;;;;;;;;;;;;;;;;5088156;28;19924;-81
2021/04/12 02:38:39;;;;;;;;;;;;;;;;;;5087900;28;20003;-81
2021/04/12 02:41:08;;;;;;;;;;;;;;;;;;5104871;28;20393;-81
2021/04/12 02:43:51;;;;;;;;;;;;;;;;;;5087674;28;20394;-81
2021/04/12 02:46:20;;;;;;;;;;;;;;;;;;5055283;28;19921;-81
2021/04/12 02:48:48;;;;;;;;;;;;;;;;;;5071320;28;19912;-81
2021/04/12 02:51:14;;;;;;;;;;;;;;;;;;5104409;28;20402;-81
2021/04/12 02:53:39;;;;;;;;;;;;;;;;;;5087762;28;19912;-81
2021/04/12 02:56:13;;;;;;;;;;;;;;;;;;5087398;28;20329;-81
2021/04/12 02:58:54;;;;;;;;;;;;;;;;;;5104693;28;19995;-81
2021/04/12 03:01:38;;;;;;;;;;;;;;;;;;5054981;28;19912;-81
2021/04/12 03:04:17;;;;;;;;;;;;;;;;;;5103252;28;19958;-81
2021/04/12 03:06:51;;;;;;;;;;;;;;;;;;5057231;28;19913;-81
2021/04/12 03:09:29;;;;;;;;;;;;;;;;;;5073686;28;19916;-81
2021/04/12 03:12:13;;;;;;;;;;;;;;;;;;5073449;28;19912;-81
2021/04/12 03:14:57;;;;;;;;;;;;;;;;;;5073503;28;19916;-81
2021/04/12 03:17:28;;;;;;;;;;;;;;;;;;5074679;28;19912;-81
2021/04/12 03:19:56;;;;;;;;;;;;;;;;;;5056961;28;19920;-82
2021/04/12 03:22:26;;;;;;;;;;;;;;;;;;5056162;28;20366;-82
2021/04/12 03:25:04;;;;;;;;;;;;;;;;;;5073539;28;20284;-81
2021/04/12 03:27:48;;;;;;;;;;;;;;;;;;5080077;28;19912;-81
2021/04/12 03:30:13;;;;;;;;;;;;;;;;;;5073657;28;19917;-81
2021/04/12 03:32:41;;;;;;;;;;;;;;;;;;5073341;28;20058;-81
2021/04/12 03:35:16;;;;;;;;;;;;;;;;;;5073559;28;19916;-82
2021/04/12 03:37:44;;;;;;;;;;;;;;;;;;5073410;28;19939;-82
2021/04/12 03:40:18;;;;;;;;;;;;;;;;;;5074634;28;19920;-81
2021/04/12 03:43:02;;;;;;;;;;;;;;;;;;5072796;28;19924;-81
2021/04/12 03:45:40;;;;;;;;;;;;;;;;;;5072831;28;19970;-81
2021/04/12 03:48:25;;;;;;;;;;;;;;;;;;5040101;28;19916;-82
2021/04/12 03:50:50;;;;;;;;;;;;;;;;;;5074175;28;19919;-82
2021/04/12 03:53:38;;;;;;;;;;;;;;;;;;5072963;28;19913;-82
2021/04/12 03:56:03;;;;;;;;;;;;;;;;;;5072078;28;19917;-81
2021/04/12 03:58:32;;;;;;;;;;;;;;;;;;5072859;28;19913;-82
2021/04/12 04:01:16;;;;;;;;;;;;;;;;;;5072729;28;20298;-82
2021/04/12 04:03:42;;;;;;;;;;;;;;;;;;5055655;28;19916;-82
2021/04/12 04:06:19;;;;;;;;;;;;;;;;;;5055933;28;19916;-81
2021/04/12 04:08:55;;;;;;;;;;;;;;;;;;5072745;28;19973;-82
2021/04/12 04:11:24;;;;;;;;;;;;;;;;;;5056097;28;19958;-82
2021/04/12 04:14:08;;;;;;;;;;;;;;;;;;5055879;28;19920;-82
2021/04/12 04:16:36;;;;;;;;;;;;;;;;;;5072133;28;19994;-82
2021/04/12 04:19:20;;;;;;;;;;;;;;;;;;5072360;28;19923;-82
2021/04/12 04:21:51;;;;;;;;;;;;;;;;;;5072276;28;19955;-82
2021/04/12 04:24:23;;;;;;;;;;;;;;;;;;5055720;28;19917;-82
2021/04/12 04:27:07;;;;;;;;;;;;;;;;;;5062692;28;19951;-82
2021/04/12 04:29:50;;;;;;;;;;;;;;;;;;5073605;28;19959;-82
2021/04/12 04:32:18;;;;;;;;;;;;;;;;;;5071638;28;19917;-81
2021/04/12 04:35:02;;;;;;;;;;;;;;;;;;5073244;28;19919;-82
2021/04/12 04:37:46;;;;;;;;;;;;;;;;;;5055214;28;19974;-82
2021/04/12 04:40:21;;;;;;;;;;;;;;;;;;5073176;28;20391;-82
2021/04/12 04:43:05;;;;;;;;;;;;;;;;;;5055085;28;19921;-82
2021/04/12 04:45:43;;;;;;;;;;;;;;;;;;5055311;28;19923;-82
2021/04/12 04:48:27;;;;;;;;;;;;;;;;;;5055483;28;19919;-81
2021/04/12 04:50:52;;;;;;;;;;;;;;;;;;5073033;28;19912;-82
2021/04/12 04:53:18;;;;;;;;;;;;;;;;;;5072884;28;19912;-82
2021/04/12 04:56:01;;;;;;;;;;;;;;;;;;5071787;28;19916;-82
2021/04/12 04:58:33;;;;;;;;;;;;;;;;;;5071850;28;19917;-81
2021/04/12 05:00:58;;;;;;;;;;;;;;;;;;5071618;28;19912;-82
2021/04/12 05:03:23;;;;;;;;;;;;;;;;;;5071127;28;19912;-81
2021/04/12 05:05:48;;;;;;;;;;;;;;;;;;5071621;28;19962;-81
2021/04/12 05:08:20;;;;;;;;;;;;;;;;;;5071702;28;19913;-82
2021/04/12 05:10:54;;;;;;;;;;;;;;;;;;5067885;28;19917;-81
2021/04/12 05:13:37;;;;;;;;;;;;;;;;;;5084872;28;19920;-82
2021/04/12 05:16:05;;;;;;;;;;;;;;;;;;5104697;28;19961;-82
2021/04/12 05:18:34;;;;;;;;;;;;;;;;;;5072947;28;19917;-82
2021/04/12 05:21:02;;;;;;;;;;;;;;;;;;5071324;28;19912;-82
2021/04/12 05:23:36;;;;;;;;;;;;;;;;;;5072847;28;19916;-82
2021/04/12 05:26:18;;;;;;;;;;;;;;;;;;5071099;28;20027;-82
2021/04/12 05:28:49;;;;;;;;;;;;;;;;;;5037412;28;19913;-82
2021/04/12 05:31:38;;;;;;;;;;;;;;;;;;5078224;28;19917;-82
2021/04/12 05:34:03;;;;;;;;;;;;;;;;;;5031225;28;19963;-82
2021/04/12 05:36:43;;;;;;;;;;;;;;;;;;5067824;28;19951;-82
2021/04/12 05:39:27;;;;;;;;;;;;;;;;;;5051116;28;20334;-82
2021/04/12 05:41:55;;;;;;;;;;;;;;;;;;5067614;28;19931;-82
2021/04/12 05:44:29;;;;;;;;;;;;;;;;;;5084910;28;19928;-86
2021/04/12 05:46:54;;;;;;;;;;;;;;;;;;5033706;28;19995;-87
2021/04/12 05:49:38;;;;;;;;;;;;;;;;;;5065860;28;19924;-87
2021/04/12 05:52:22;;;;;;;;;;;;;;;;;;5065315;28;19921;-88
2021/04/12 05:54:48;;;;;;;;;;;;;;;;;;5085061;28;19920;-89
2021/04/12 05:57:33;;;;;;;;;;;;;;;;;;5085058;28;19974;-89
2021/04/12 06:00:11;;;;;;;;;;;;;;;;;;5068048;28;19920;-88
2021/04/12 06:02:37;;;;;;;;;;;;;;;;;;5037794;28;19923;-88
2021/04/12 06:05:02;;;;;;;;;;;;;;;;;;5053672;28;19917;-86
2021/04/12 06:07:33;;;;;;;;;;;;;;;;;;5052748;28;19920;-87
2021/04/12 06:10:05;;;;;;;;;;;;;;;;;;5052879;28;20061;-87
2021/04/12 06:12:51;;;;;;;;;;;;;;;;;;5054773;28;19912;-87
2021/04/12 06:15:37;;;;;;;;;;;;;;;;;;5054422;28;19920;-86
2021/04/12 06:18:21;;;;;;;;;;;;;;;;;;5054347;28;20428;-87
2021/04/12 06:20:59;;;;;;;;;;;;;;;;;;5053155;28;19917;-83
2021/04/12 06:23:33;;;;;;;;;;;;;;;;;;5070949;28;19912;-85
2021/04/12 06:26:18;;;;;;;;;;;;;;;;;;5054868;28;20430;-85
2021/04/12 06:28:43;;;;;;;;;;;;;;;;;;5073988;28;20409;-83
2021/04/12 06:31:25;;;;;;;;;;;;;;;;;;5070692;28;19920;-82
2021/04/12 06:33:54;;;;;;;;;;;;;;;;;;5071831;28;19916;-81
2021/04/12 06:36:38;;;;;;;;;;;;;;;;;;5053911;28;20007;-83
2021/04/12 06:39:23;;;;;;;;;;;;;;;;;;5052795;28;19913;-84
2021/04/12 06:41:51;;;;;;;;;;;;;;;;;;5070587;28;19916;-82
2021/04/12 06:44:20;;;;;;;;;;;;;;;;;;5052393;28;19921;-84
2021/04/12 06:47:01;;;;;;;;;;;;;;;;;;5053979;28;19919;-85
2021/04/12 06:49:36;;;;;;;;;;;;;;;;;;5070454;28;19923;-84
2021/04/12 06:52:27;;;;;;;;;;;;;;;;;;5053531;28;20018;-83
2021/04/12 06:55:11;;;;;;;;;;;;;;;;;;5050938;28;20438;-84
2021/04/12 06:57:38;;;;;;;;;;;;;;;;;;5049885;28;20374;-83
2021/04/12 07:00:22;;;;;;;;;;;;;;;;;;5050456;28;20015;-83
2021/04/12 07:02:54;;;;;;;;;;;;;;;;;;5055992;28;19929;-83
2021/04/12 07:05:25;;;;;;;;;;;;;;;;;;5073551;28;19924;-83
2021/04/12 07:08:09;;;;;;;;;;;;;;;;;;5037272;28;20325;-84
2021/04/12 07:10:55;;;;;;;;;;;;;;;;;;5053975;28;19917;-83
2021/04/12 07:13:30;;;;;;;;;;;;;;;;;;5056189;28;19916;-83
2021/04/12 07:16:14;;;;;;;;;;;;;;;;;;5057248;28;19921;-84
2021/04/12 07:18:58;;;;;;;;;;;;;;;;;;5057179;28;19913;-83
2021/04/12 07:21:26;;;;;;;;;;;;;;;;;;5056084;28;19923;-83
2021/04/12 07:24:08;;;;;;;;;;;;;;;;;;5056618;28;20305;-82
2021/04/12 07:26:52;;;;;;;;;;;;;;;;;;5056145;28;19970;-83
2021/04/12 07:29:36;;;;;;;;;;;;;;;;;;5056897;28;19916;-83
2021/04/12 07:32:07;;;;;;;;;;;;;;;;;;5073469;28;19970;-83
2021/04/12 07:34:32;;;;;;;;;;;;;;;;;;5056703;28;19920;-82
2021/04/12 07:37:12;;;;;;;;;;;;;;;;;;5107302;28;19918;-83
2021/04/12 07:39:55;;;;;;;;;;;;;;;;;;5073290;28;19916;-83
2021/04/12 07:42:23;;;;;;;;;;;;;;;;;;5072838;28;20407;-83
2021/04/12 07:45:01;;;;;;;;;;;;;;;;;;5056289;28;19917;-82
2021/04/12 07:47:45;;;;;;;;;;;;;;;;;;5056543;28;19919;-82
2021/04/12 07:50:23;;;;;;;;;;;;;;;;;;5074290;28;19958;-82
2021/04/12 07:52:48;;;;;;;;;;;;;;;;;;5089630;28;19917;-82
2021/04/12 07:55:20;;;;;;;;;;;;;;;;;;5106235;28;20397;-82
2021/04/12 07:58:04;;;;;;;;;;;;;;;;;;5053050;28;19952;-82
2021/04/12 08:00:35;;;;;;;;;;;;;;;;;;5055857;28;19916;-81
2021/04/12 08:03:09;;;;;;;;;;;;;;;;;;5072404;28;20355;-82
2021/04/12 08:05:35;;;;;;;;;;;;;;;;;;5073521;28;20010;-81
2021/04/12 08:08:06;;;;;;;;;;;;;;;;;;5072838;28;20011;-82
2021/04/12 08:10:40;;;;;;;;;;;;;;;;;;5055317;28;19920;-82
2021/04/12 08:13:06;;;;;;;;;;;;;;;;;;5073548;28;19916;-81
2021/04/12 08:15:50;;;;;;;;;;;;;;;;;;5073775;28;19927;-81
2021/04/12 08:18:21;;;;;;;;;;;;;;;;;;5072455;28;19939;-81
2021/04/12 08:20:54;;;;;;;;;;;;;;;;;;5073667;28;19916;-81
2021/04/12 08:23:49;;;;;;;;;;;;;;;;;;5072385;28;19943;-80
2021/04/12 08:26:29;;;;;;;;;;;;;;;;;;5054073;28;20408;-80
2021/04/12 08:28:59;;;;;;;;;;;;;;;;;;5073758;28;19912;-80
2021/04/12 08:31:33;;;;;;;;;;;;;;;;;;5055185;28;19916;-81
2021/04/12 08:34:18;;;;;;;;;;;;;;;;;;5071446;28;19920;-80
2021/04/12 08:36:46;;;;;;;;;;;;;;;;;;5073675;28;19917;-80
2021/04/12 08:39:18;;;;;;;;;;;;;;;;;;5071907;28;19919;-81
2021/04/12 08:41:43;;;;;;;;;;;;;;;;;;5055515;28;20554;-82
2021/04/12 08:44:27;;;;;;;;;;;;;;;;;;5072873;28;19916;-81
2021/04/12 08:47:21;;;;;;;;;;;;;;;;;;5055176;28;19940;-81
2021/04/12 08:50:05;;;;;;;;;;;;;;;;;;5059205;28;19923;-81
2021/04/12 08:52:49;;;;;;;;;;;;;;;;;;5051691;28;20050;-81
2021/04/12 08:55:32;;;;;;;;;;;;;;;;;;5051603;28;19919;-81
2021/04/12 08:58:06;;;;;;;;;;;;;;;;;;5051916;28;20431;-81
2021/04/12 09:00:55;;;;;;;;;;;;;;;;;;5051588;28;19920;-81
2021/04/12 09:03:39;;;;;;;;;;;;;;;;;;5060401;28;19916;-81
2021/04/12 09:06:07;;;;;;;;;;;;;;;;;;5067390;28;19917;-81
2021/04/12 09:08:38;;;;;;;;;;;;;;;;;;5085586;28;20004;-81
2021/04/12 09:11:08;;;;;;;;;;;;;;;;;;5071230;28;19954;-80
2021/04/12 09:13:55;;;;;;;;;;;;;;;;;;5037619;28;20292;-82
2021/04/12 09:16:20;;;;;;;;;;;;;;;;;;5051587;28;20386;-83
2021/04/12 09:18:46;;;;;;;;;;;;;;;;;;5051349;28;19919;-80
2021/04/12 09:21:20;;;;;;;;;;;;;;;;;;5051375;28;20021;-80
2021/04/12 09:24:04;;;;;;;;;;;;;;;;;;5053955;28;19922;-80
2021/04/12 09:26:48;;;;;;;;;;;;;;;;;;5070592;28;19912;-80
2021/04/12 09:29:17;;;;;;;;;;;;;;;;;;5071094;28;19955;-80
2021/04/12 09:31:45;;;;;;;;;;;;;;;;;;5070734;28;20413;-81
2021/04/12 09:34:22;;;;;;;;;;;;;;;;;;5071118;28;20286;-80
2021/04/12 09:36:53;;;;;;;;;;;;;;;;;;5054314;28;19944;-80
2021/04/12 09:39:31;;;;;;;;;;;;;;;;;;5071012;28;20405;-80
2021/04/12 09:42:05;;;;;;;;;;;;;;;;;;5053941;28;20294;-80
2021/04/12 09:44:49;;;;;;;;;;;;;;;;;;5071807;28;19920;-80
2021/04/12 09:47:25;;;;;;;;;;;;;;;;;;5070153;28;20284;-80
2021/04/12 09:50:08;;;;;;;;;;;;;;;;;;5072357;28;19995;-80
2021/04/12 09:52:37;;;;;;;;;;;;;;;;;;5070900;28;19947;-80
2021/04/12 09:55:20;;;;;;;;;;;;;;;;;;5070766;28;19916;-80
2021/04/12 09:57:51;;;;;;;;;;;;;;;;;;5072030;28;20007;-80
2021/04/12 10:00:40;;;;;;;;;;;;;;;;;;5054249;28;20409;-80
2021/04/12 10:03:19;;;;;;;;;;;;;;;;;;5025552;28;19912;-80
2021/04/12 10:05:50;;;;;;;;;;;;;;;;;;5069843;28;20015;-80
2021/04/12 10:08:26;;;;;;;;;;;;;;;;;;5071067;28;19919;-80
2021/04/12 10:10:51;;;;;;;;;;;;;;;;;;5053849;28;19928;-82
2021/04/12 10:13:23;;;;;;;;;;;;;;;;;;5071779;28;19921;-81
2021/04/12 10:15:59;;;;;;;;;;;;;;;;;;5070780;28;20019;-81
2021/04/12 10:18:27;;;;;;;;;;;;;;;;;;5070559;28;20374;-83
2021/04/12 10:20:55;;;;;;;;;;;;;;;;;;5071487;28;19916;-83
2021/04/12 10:23:22;;;;;;;;;;;;;;;;;;5054020;28;19913;-82
2021/04/12 10:25:48;;;;;;;;;;;;;;;;;;5054048;28;20301;-82
2021/04/12 10:28:26;;;;;;;;;;;;;;;;;;5053504;28;20146;-82
2021/04/12 10:31:18;;;;;;;;;;;;;;;;;;5070268;28;19920;-83
2021/04/12 10:33:43;;;;;;;;;;;;;;;;;;5054416;28;19946;-82
2021/04/12 10:36:19;;;;;;;;;;;;;;;;;;5056746;28;19916;-81
2021/04/12 10:38:44;;;;;;;;;;;;;;;;;;5068015;28;19913;-80
2021/04/12 10:41:32;;;;;;;;;;;;;;;;;;5057451;28;19912;-80
2021/04/12 10:44:00;;;;;;;;;;;;;;;;;;5074135;28;19920;-80
2021/04/12 10:46:32;;;;;;;;;;;;;;;;;;5066245;28;19921;-80
2021/04/12 10:49:15;;;;;;;;;;;;;;;;;;5067920;28;19917;-79
2021/04/12 10:51:53;;;;;;;;;;;;;;;;;;5070394;28;19912;-80
2021/04/12 10:54:18;;;;;;;;;;;;;;;;;;5074084;28;19912;-79
2021/04/12 10:56:50;;;;;;;;;;;;;;;;;;5071127;28;19924;-80
2021/04/12 10:59:19;;;;;;;;;;;;;;;;;;5054186;28;19913;-80
2021/04/12 11:01:47;;;;;;;;;;;;;;;;;;5087187;28;19960;-80
2021/04/12 11:04:21;;;;;;;;;;;;;;;;;;5071169;28;19916;-80
2021/04/12 11:07:02;;;;;;;;;;;;;;;;;;5074617;28;19927;-80
2021/04/12 11:09:34;;;;;;;;;;;;;;;;;;5060062;28;20337;-79
2021/04/12 11:12:03;;;;;;;;;;;;;;;;;;5073045;28;19935;-80
2021/04/12 11:14:37;;;;;;;;;;;;;;;;;;5073486;28;20098;-79
2021/04/12 11:17:17;;;;;;;;;;;;;;;;;;5073864;28;19917;-79
2021/04/12 11:19:42;;;;;;;;;;;;;;;;;;5056701;28;19916;-79
2021/04/12 11:22:10;;;;;;;;;;;;;;;;;;5074420;28;19924;-79
2021/04/12 11:24:50;;;;;;;;;;;;;;;;;;5072825;28;20370;-80
2021/04/12 11:27:34;;;;;;;;;;;;;;;;;;5070102;28;19927;-80
2021/04/12 11:30:19;;;;;;;;;;;;;;;;;;5088690;28;19924;-81
2021/04/12 11:32:54;;;;;;;;;;;;;;;;;;5071891;28;20366;-80
2021/04/12 11:35:21;;;;;;;;;;;;;;;;;;5074524;28;20047;-80
2021/04/12 11:37:46;;;;;;;;;;;;;;;;;;5056559;28;19912;-80
2021/04/12 11:40:13;;;;;;;;;;;;;;;;;;5073250;28;19939;-80
2021/04/12 11:42:39;;;;;;;;;;;;;;;;;;5056226;28;19923;-79
2021/04/12 11:45:08;;;;;;;;;;;;;;;;;;5056122;28;19920;-78
2021/04/12 11:47:52;;;;;;;;;;;;;;;;;;5074005;28;19966;-83
2021/04/12 11:50:26;;;;;;;;;;;;;;;;;;5055653;28;19916;-80
2021/04/12 11:52:58;;;;;;;;;;;;;;;;;;5056213;28;19999;-80
2021/04/12 11:55:37;;;;;;;;;;;;;;;;;;5072682;28;19923;-81
2021/04/12 11:58:10;;;;;;;;;;;;;;;;;;5056268;28;20337;-80
2021/04/12 12:00:44;;;;;;;;;;;;;;;;;;5127216;27;19913;-80
2021/04/12 12:03:14;;;;;;;;;;;;;;;;;;5074587;28;19912;-79
2021/04/12 12:06:03;;;;;;;;;;;;;;;;;;5072135;28;20374;-81
2021/04/12 12:08:32;;;;;;;;;;;;;;;;;;5050441;28;20013;-80
2021/04/12 12:11:01;;;;;;;;;;;;;;;;;;5055715;28;19912;-80
2021/04/12 12:13:35;;;;;;;;;;;;;;;;;;5072370;28;19916;-80
2021/04/12 12:16:19;;;;;;;;;;;;;;;;;;5072275;28;19916;-80
2021/04/12 12:18:51;;;;;;;;;;;;;;;;;;5072099;28;20011;-80
2021/04/12 12:21:25;;;;;;;;;;;;;;;;;;5072378;28;19919;-81
2021/04/12 12:24:11;;;;;;;;;;;;;;;;;;5072481;28;19912;-80
2021/04/12 12:26:50;;;;;;;;;;;;;;;;;;5072097;28;19912;-79
2021/04/12 12:29:26;;;;;;;;;;;;;;;;;;5038785;28;19934;-81
2021/04/12 12:31:57;;;;;;;;;;;;;;;;;;5055212;28;19916;-82
2021/04/12 12:34:34;;;;;;;;;;;;;;;;;;5072404;28;19995;-81
2021/04/12 12:37:07;;;;;;;;;;;;;;;;;;5072714;28;19912;-81
2021/04/12 12:39:43;;;;;;;;;;;;;;;;;;5071995;28;19916;-81
2021/04/12 12:42:15;;;;;;;;;;;;;;;;;;5052975;28;19916;-80
2021/04/12 12:44:41;;;;;;;;;;;;;;;;;;5054637;28;19920;-80
2021/04/12 12:47:08;;;;;;;;;;;;;;;;;;5038559;28;20331;-80
2021/04/12 12:49:34;;;;;;;;;;;;;;;;;;5038675;28;19994;-80
2021/04/12 12:52:00;;;;;;;;;;;;;;;;;;5038606;28;19913;-80
2021/04/12 12:54:45;;;;;;;;;;;;;;;;;;5055478;28;19912;-80
2021/04/12 12:57:20;;;;;;;;;;;;;;;;;;5054552;28;20325;-80
2021/04/12 12:59:52;;;;;;;;;;;;;;;;;;5038341;28;19912;-80
2021/04/12 13:02:22;;;;;;;;;;;;;;;;;;5034370;28;19916;-79
2021/04/12 13:04:56;;;;;;;;;;;;;;;;;;5070896;28;20008;-79
2021/04/12 13:07:21;;;;;;;;;;;;;;;;;;5087236;28;19912;-80
2021/04/12 13:09:54;;;;;;;;;;;;;;;;;;5091603;28;19966;-80
2021/04/12 13:12:19;;;;;;;;;;;;;;;;;;5085139;28;19916;-83
2021/04/12 13:14:48;;;;;;;;;;;;;;;;;;5053897;28;19924;-85
2021/04/12 13:17:34;;;;;;;;;;;;;;;;;;5036404;28;19916;-84
2021/04/12 13:20:03;;;;;;;;;;;;;;;;;;5036775;28;19912;-85
2021/04/12 13:22:30;;;;;;;;;;;;;;;;;;5037601;28;20374;-85
2021/04/12 13:25:11;;;;;;;;;;;;;;;;;;5054918;28;19912;-84
2021/04/12 13:28:01;;;;;;;;;;;;;;;;;;5039376;28;19912;-85
2021/04/12 13:30:29;;;;;;;;;;;;;;;;;;5069854;28;19962;-84
2021/04/12 13:32:58;;;;;;;;;;;;;;;;;;5055239;28;19999;-84
2021/04/12 13:35:24;;;;;;;;;;;;;;;;;;5037427;28;19920;-82
2021/04/12 13:37:49;;;;;;;;;;;;;;;;;;5088288;28;19916;-81
2021/04/12 13:40:18;;;;;;;;;;;;;;;;;;5087756;28;20019;-84
2021/04/12 13:42:47;;;;;;;;;;;;;;;;;;5070852;28;19927;-82
2021/04/12 13:45:13;;;;;;;;;;;;;;;;;;5070750;28;19920;-82
2021/04/12 13:47:43;;;;;;;;;;;;;;;;;;5070896;28;19919;-80
2021/04/12 13:50:14;;;;;;;;;;;;;;;;;;5087594;28;19959;-82
2021/04/12 13:52:46;;;;;;;;;;;;;;;;;;5071445;28;19913;-79
2021/04/12 13:55:12;;;;;;;;;;;;;;;;;;5070367;28;19955;-80
2021/04/12 13:57:42;;;;;;;;;;;;;;;;;;5054518;28;19970;-82
2021/04/12 14:00:18;;;;;;;;;;;;;;;;;;5054358;28;19961;-83
2021/04/12 14:02:54;;;;;;;;;;;;;;;;;;5037014;28;20527;-84
2021/04/12 14:05:30;;;;;;;;;;;;;;;;;;5054068;28;19919;-83
2021/04/12 14:08:04;;;;;;;;;;;;;;;;;;5050735;28;19967;-84
2021/04/12 14:10:31;;;;;;;;;;;;;;;;;;5041690;28;19920;-82
2021/04/12 14:13:35;;;;;;;;;;;;;;;;;;5055845;28;19954;-85
2021/04/12 14:16:02;;;;;;;;;;;;;;;;;;5036015;28;19964;-82
2021/04/12 14:18:38;;;;;;;;;;;;;;;;;;5037012;28;19956;-82
2021/04/12 14:21:08;;;;;;;;;;;;;;;;;;5030787;28;19990;-82
2021/04/12 14:23:39;;;;;;;;;;;;;;;;;;5055592;28;20332;-81
2021/04/12 14:26:14;;;;;;;;;;;;;;;;;;5053168;28;20019;-81
2021/04/12 14:28:42;;;;;;;;;;;;;;;;;;5057837;28;19919;-81
2021/04/12 14:31:21;;;;;;;;;;;;;;;;;;5057927;28;20073;-81
2021/04/12 14:33:47;;;;;;;;;;;;;;;;;;5056453;28;19913;-81
2021/04/12 14:36:13;;;;;;;;;;;;;;;;;;5056524;28;19927;-82
2021/04/12 14:38:43;;;;;;;;;;;;;;;;;;5073931;28;20447;-82
2021/04/12 14:41:24;;;;;;;;;;;;;;;;;;5056967;28;20155;-82
2021/04/12 14:44:03;;;;;;;;;;;;;;;;;;5057313;28;19985;-82
2021/04/12 14:46:30;;;;;;;;;;;;;;;;;;5074177;28;19966;-82
2021/04/12 14:49:03;;;;;;;;;;;;;;;;;;5057816;28;19912;-83
2021/04/12 14:51:29;;;;;;;;;;;;;;;;;;5057461;28;20003;-81
2021/04/12 14:54:14;;;;;;;;;;;;;;;;;;5074235;28;19917;-80
2021/04/12 14:56:44;;;;;;;;;;;;;;;;;;5056877;28;19913;-80
2021/04/12 14:59:10;;;;;;;;;;;;;;;;;;5074132;28;19912;-80
2021/04/12 15:01:48;;;;;;;;;;;;;;;;;;5073702;28;19912;-80
2021/04/12 15:04:14;;;;;;;;;;;;;;;;;;5074261;28;20017;-81
2021/04/12 15:06:44;;;;;;;;;;;;;;;;;;5056414;28;20001;-82
2021/04/12 15:09:13;;;;;;;;;;;;;;;;;;5073814;28;19962;-79
2021/04/12 15:11:59;;;;;;;;;;;;;;;;;;5068396;28;19948;-78
2021/04/12 15:14:26;;;;;;;;;;;;;;;;;;5060307;28;19927;-78
2021/04/12 15:16:52;;;;;;;;;;;;;;;;;;5056827;28;19952;-79
2021/04/12 15:19:37;;;;;;;;;;;;;;;;;;5074076;28;19960;-79
2021/04/12 15:22:15;;;;;;;;;;;;;;;;;;5074606;28;19934;-78
2021/04/12 15:24:41;;;;;;;;;;;;;;;;;;5071926;28;19935;-81
2021/04/12 15:27:23;;;;;;;;;;;;;;;;;;5039940;28;19924;-80
2021/04/12 15:29:49;;;;;;;;;;;;;;;;;;5073134;28;19912;-81
2021/04/12 15:32:14;;;;;;;;;;;;;;;;;;5073098;28;20003;-80
2021/04/12 15:34:41;;;;;;;;;;;;;;;;;;5073144;28;20080;-81
2021/04/12 15:37:33;;;;;;;;;;;;;;;;;;5055565;28;19920;-81
2021/04/12 15:40:05;;;;;;;;;;;;;;;;;;5070744;28;19916;-82
2021/04/12 15:42:30;;;;;;;;;;;;;;;;;;5073184;28;19916;-83
2021/04/12 15:44:59;;;;;;;;;;;;;;;;;;5073087;28;20271;-82
2021/04/12 15:47:25;;;;;;;;;;;;;;;;;;5056559;28;20326;-82
2021/04/12 15:49:50;;;;;;;;;;;;;;;;;;5056505;28;20290;-82
2021/04/12 15:52:20;;;;;;;;;;;;;;;;;;5055775;28;19916;-82
2021/04/12 15:55:04;;;;;;;;;;;;;;;;;;5038944;28;19947;-83
2021/04/12 15:57:30;;;;;;;;;;;;;;;;;;5072628;28;19923;-83
2021/04/12 15:59:57;;;;;;;;;;;;;;;;;;5039544;28;19913;-83
2021/04/12 16:02:28;;;;;;;;;;;;;;;;;;5072322;28;19983;-82
2021/04/12 16:05:03;;;;;;;;;;;;;;;;;;5072294;28;19920;-82
2021/04/12 16:07:35;;;;;;;;;;;;;;;;;;5105075;28;19921;-84
2021/04/12 16:10:09;;;;;;;;;;;;;;;;;;5089345;28;19918;-82
2021/04/12 16:12:38;;;;;;;;;;;;;;;;;;5105208;28;19927;-83
2021/04/12 16:15:12;;;;;;;;;;;;;;;;;;5081268;28;19923;-80
2021/04/12 16:17:42;;;;;;;;;;;;;;;;;;5072627;28;19917;-80
2021/04/12 16:20:27;;;;;;;;;;;;;;;;;;5072345;28;20015;-80
2021/04/12 16:22:55;;;;;;;;;;;;;;;;;;5055622;28;20399;-80
2021/04/12 16:25:20;;;;;;;;;;;;;;;;;;5038793;28;19912;-80
2021/04/12 16:27:46;;;;;;;;;;;;;;;;;;5073506;28;19967;-79
2021/04/12 16:30:33;;;;;;;;;;;;;;;;;;5055177;28;20452;-79
2021/04/12 16:33:05;;;;;;;;;;;;;;;;;;5073457;28;19963;-82
2021/04/12 16:35:37;;;;;;;;;;;;;;;;;;5055460;28;19955;-82
2021/04/12 16:38:02;;;;;;;;;;;;;;;;;;5038339;28;19917;-81
2021/04/12 16:40:28;;;;;;;;;;;;;;;;;;5071784;28;19919;-81
2021/04/12 16:42:58;;;;;;;;;;;;;;;;;;5055119;28;19968;-81
2021/04/12 16:45:25;;;;;;;;;;;;;;;;;;5055015;28;20019;-82
2021/04/12 16:47:51;;;;;;;;;;;;;;;;;;5054851;28;20484;-81
2021/04/12 16:50:27;;;;;;;;;;;;;;;;;;5038668;28;19912;-81
2021/04/12 16:52:53;;;;;;;;;;;;;;;;;;5036342;28;19924;-81
2021/04/12 16:55:19;;;;;;;;;;;;;;;;;;5054819;28;19912;-80
2021/04/12 16:57:46;;;;;;;;;;;;;;;;;;5055048;28;19920;-81
2021/04/12 17:00:14;;;;;;;;;;;;;;;;;;5055077;28;20391;-82
2021/04/12 17:03:06;;;;;;;;;;;;;;;;;;5071174;28;19912;-82
2021/04/12 17:05:33;;;;;;;;;;;;;;;;;;5051717;28;19919;-82
2021/04/12 17:08:00;;;;;;;;;;;;;;;;;;5071866;28;20294;-81
2021/04/12 17:11:01;;;;;;;;;;;;;;;;;;5071459;28;19940;-81
2021/04/12 17:13:27;;;;;;;;;;;;;;;;;;5050234;28;19916;-81
2021/04/12 17:15:58;;;;;;;;;;;;;;;;;;5063276;28;20379;-81
2021/04/12 17:18:25;;;;;;;;;;;;;;;;;;5038262;28;20348;-81
2021/04/12 17:21:00;;;;;;;;;;;;;;;;;;5071179;28;20400;-81
2021/04/12 17:23:26;;;;;;;;;;;;;;;;;;5054470;28;19916;-81
2021/04/12 17:25:54;;;;;;;;;;;;;;;;;;5054417;28;19919;-81
2021/04/12 17:28:25;;;;;;;;;;;;;;;;;;5071693;28;19920;-81
2021/04/12 17:30:52;;;;;;;;;;;;;;;;;;5054597;28;19913;-81
2021/04/12 17:33:22;;;;;;;;;;;;;;;;;;5070798;28;19923;-81